Time,TemperatureF,DewpointF,PressureIn,WindDirection,WindDirectionDegrees,WindSpeedMPH,WindSpeedGustMPH,Humidity,HourlyPrecipIn,Conditions,Clouds,dailyrainin,SoftwareType,DateUTC
2013-05-16 00:09:00,53.2,52.1,29.70,South,183,0.0,0.0,96,0.00,CLR,,0.00,WeatherDisplay:10.37,2013-05-16 04:09:00,
2013-05-16 00:19:00,53.1,52.0,29.70,South,183,0.0,0.0,96,0.00,CLR,,0.00,WeatherDisplay:10.37,2013-05-16 04:19:00,
2013-05-16 00:29:00,52.8,51.7,29.70,South,183,0.0,0.0,96,0.00,CLR,,0.00,WeatherDisplay:10.37,2013-05-16 04:29:00,
2013-05-16 00:39:00,52.5,51.7,29.71,South,183,0.0,0.0,97,0.00,CLR,,0.00,WeatherDisplay:10.37,2013-05-16 04:39:00,
2013-05-16 00:49:00,52.4,51.5,29.71,South,183,0.0,0.0,97,0.00,CLR,,0.00,WeatherDisplay:10.37,2013-05-16 04:49:00,
2013-05-16 00:59:00,52.3,51.5,29.71,South,183,0.0,0.0,97,0.00,CLR,,0.00,WeatherDisplay:10.37,2013-05-16 04:59:00,
2013-05-16 01:09:00,52.1,51.3,29.71,South,183,0.0,0.0,97,0.00,CLR,,0.00,WeatherDisplay:10.37,2013-05-16 05:09:00,
2013-05-16 01:19:00,52.0,51.2,29.71,South,183,0.0,0.0,97,0.00,CLR,,0.00,WeatherDisplay:10.37,2013-05-16 05:19:00,
2013-05-16 01:29:00,51.6,50.8,29.71,South,183,0.0,0.0,97,0.00,CLR,,0.00,WeatherDisplay:10.37,2013-05-16 05:29:00,
2013-05-16 01:40:00,51.3,50.5,29.71,South,183,0.0,0.0,97,0.00,CLR,,0.00,WeatherDisplay:10.37,2013-05-16 05:40:00,
2013-05-16 01:49:00,51.0,50.2,29.71,South,183,0.0,0.0,97,0.00,CLR,,0.00,WeatherDisplay:10.37,2013-05-16 05:49:00,
2013-05-16 01:59:00,50.8,50.0,29.71,South,183,0.0,0.0,97,0.00,CLR,,0.00,WeatherDisplay:10.37,2013-05-16 05:59:00,
2013-05-16 02:09:00,50.7,49.9,29.71,South,183,0.0,0.0,97,0.00,CLR,,0.00,WeatherDisplay:10.37,2013-05-16 06:09:00,
2013-05-16 02:19:00,50.5,49.9,29.71,South,183,0.0,0.0,98,0.00,CLR,,0.00,WeatherDisplay:10.37,2013-05-16 06:19:00,
2013-05-16 02:29:00,50.3,49.5,29.71,South,183,0.0,0.0,97,0.00,CLR,,0.00,WeatherDisplay:10.37,2013-05-16 06:29:00,
2013-05-16 02:39:00,50.1,49.6,29.71,South,183,0.0,0.0,98,0.00,CLR,,0.00,WeatherDisplay:10.37,2013-05-16 06:39:00,
2013-05-16 02:49:00,49.9,49.4,29.71,South,183,0.0,0.0,98,0.00,CLR,,0.00,WeatherDisplay:10.37,2013-05-16 06:49:00,
2013-05-16 02:59:00,49.8,49.2,29.71,South,183,0.0,0.0,98,0.00,CLR,,0.00,WeatherDisplay:10.37,2013-05-16 06:59:00,
2013-05-16 03:09:00,49.6,49.1,29.71,South,183,0.0,0.0,98,0.00,CLR,,0.00,WeatherDisplay:10.37,2013-05-16 07:09:00,
2013-05-16 03:19:00,49.5,49.0,29.71,South,183,0.0,0.0,98,0.00,CLR,,0.00,WeatherDisplay:10.37,2013-05-16 07:19:00,
2013-05-16 03:29:00,49.4,48.9,29.71,South,183,0.0,0.0,98,0.00,CLR,,0.00,WeatherDisplay:10.37,2013-05-16 07:29:00,
2013-05-16 03:39:00,49.2,48.6,29.70,South,183,0.0,0.0,98,0.00,CLR,,0.00,WeatherDisplay:10.37,2013-05-16 07:39:00,
2013-05-16 03:49:00,48.9,48.4,29.70,South,183,0.0,0.0,98,0.00,CLR,,0.00,WeatherDisplay:10.37,2013-05-16 07:49:00,
2013-05-16 03:59:00,48.7,48.2,29.70,South,183,0.0,0.0,98,0.00,CLR,,0.00,WeatherDisplay:10.37,2013-05-16 07:59:00,
2013-05-16 04:09:00,48.6,48.0,29.70,South,183,0.0,0.0,98,0.00,CLR,,0.00,WeatherDisplay:10.37,2013-05-16 08:09:00,
2013-05-16 04:19:00,48.6,48.1,29.70,South,183,0.0,0.0,98,0.00,CLR,,0.00,WeatherDisplay:10.37,2013-05-16 08:19:00,
2013-05-16 04:29:00,48.9,48.3,29.71,South,183,0.0,2.0,98,0.00,CLR,,0.00,WeatherDisplay:10.37,2013-05-16 08:29:00,
2013-05-16 04:39:00,49.1,48.8,29.71,South,183,0.0,3.0,99,0.00,CLR,,0.00,WeatherDisplay:10.37,2013-05-16 08:39:00,
2013-05-16 04:49:00,49.2,48.9,29.71,South,183,0.0,3.0,99,0.00,CLR,,0.00,WeatherDisplay:10.37,2013-05-16 08:49:00,
2013-05-16 05:00:00,49.1,48.8,29.71,South,183,0.0,3.0,99,0.00,CLR,,0.00,WeatherDisplay:10.37,2013-05-16 09:00:00,
2013-05-16 05:09:00,49.1,48.8,29.71,South,184,0.0,1.0,99,0.00,CLR,,0.00,WeatherDisplay:10.37,2013-05-16 09:09:00,
2013-05-16 05:19:00,48.9,48.6,29.72,South,184,0.0,1.0,99,0.00,CLR,,0.00,WeatherDisplay:10.37,2013-05-16 09:19:00,
2013-05-16 05:29:00,48.6,48.3,29.72,South,184,0.0,0.0,99,0.00,CLR,,0.00,WeatherDisplay:10.37,2013-05-16 09:29:00,
2013-05-16 05:39:00,48.1,47.8,29.72,South,184,0.0,0.0,99,0.00,CLR,,0.00,WeatherDisplay:10.37,2013-05-16 09:39:00,
2013-05-16 05:49:00,47.6,47.1,29.72,South,184,0.0,0.0,98,0.00,CLR,,0.00,WeatherDisplay:10.37,2013-05-16 09:49:00,
2013-05-16 06:00:00,47.5,47.2,29.72,South,184,0.0,0.0,99,0.00,CLR,,0.00,WeatherDisplay:10.37,2013-05-16 10:00:00,
2013-05-16 06:09:00,47.6,47.3,29.73,South,184,0.0,0.0,99,0.00,CLR,,0.00,WeatherDisplay:10.37,2013-05-16 10:09:00,
2013-05-16 06:19:00,47.8,47.5,29.74,South,184,0.0,0.0,99,0.00,CLR,,0.00,WeatherDisplay:10.37,2013-05-16 10:19:00,
2013-05-16 06:29:00,48.2,47.9,29.75,South,184,0.0,0.0,99,0.00,CLR,,0.00,WeatherDisplay:10.37,2013-05-16 10:29:00,
2013-05-16 06:39:00,48.7,48.4,29.75,South,184,0.0,0.0,99,0.00,CLR,,0.00,WeatherDisplay:10.37,2013-05-16 10:39:00,
2013-05-16 06:49:00,49.2,48.9,29.75,South,184,0.0,0.0,99,0.00,CLR,,0.00,WeatherDisplay:10.37,2013-05-16 10:49:00,
2013-05-16 07:00:00,49.9,49.6,29.76,South,184,0.0,0.0,99,0.00,CLR,,0.00,WeatherDisplay:10.37,2013-05-16 11:00:00,
2013-05-16 07:09:00,50.6,50.6,29.77,South,184,0.0,0.0,100,0.00,BKN,,0.00,WeatherDisplay:10.37,2013-05-16 11:09:00,
2013-05-16 07:19:00,51.4,51.4,29.77,South,184,0.0,0.0,100,0.00,BKN,,0.00,WeatherDisplay:10.37,2013-05-16 11:19:00,
2013-05-16 07:29:00,52.1,52.1,29.77,South,184,0.0,1.0,100,0.00,BKN,,0.00,WeatherDisplay:10.37,2013-05-16 11:29:00,
2013-05-16 07:39:00,52.8,52.8,29.77,South,184,0.0,2.0,100,0.00,BKN,,0.00,WeatherDisplay:10.37,2013-05-16 11:39:00,
2013-05-16 07:49:00,53.5,53.5,29.77,South,184,0.0,1.0,100,0.00,BKN,,0.00,WeatherDisplay:10.37,2013-05-16 11:49:00,
2013-05-16 07:59:00,54.3,54.3,29.77,South,184,0.0,3.0,100,0.00,BKN,,0.00,WeatherDisplay:10.37,2013-05-16 11:59:00,
2013-05-16 08:09:00,55.2,55.2,29.78,South,184,0.0,2.0,100,0.00,BKN,,0.00,WeatherDisplay:10.37,2013-05-16 12:09:00,
2013-05-16 08:19:00,56.2,56.2,29.78,WNW,287,1.0,3.0,100,0.00,BKN,,0.00,WeatherDisplay:10.37,2013-05-16 12:19:00,
2013-05-16 08:29:00,57.1,57.1,29.78,NW,324,0.0,2.0,100,0.00,BKN,,0.00,WeatherDisplay:10.37,2013-05-16 12:29:00,
2013-05-16 08:39:00,58.4,58.4,29.78,NW,324,0.0,0.0,100,0.00,BKN,,0.00,WeatherDisplay:10.37,2013-05-16 12:39:00,
2013-05-16 08:49:00,59.2,58.7,29.78,NW,324,0.0,0.0,98,0.00,BKN,,0.00,WeatherDisplay:10.37,2013-05-16 12:49:00,
2013-05-16 09:00:00,60.7,58.9,29.78,NW,324,0.0,0.0,94,0.00,BKN,,0.00,WeatherDisplay:10.37,2013-05-16 13:00:00,
2013-05-16 09:09:00,62.1,59.5,29.79,NW,324,0.0,0.0,91,0.00,BKN,,0.00,WeatherDisplay:10.37,2013-05-16 13:09:00,
2013-05-16 09:19:00,63.3,57.4,29.79,WSW,256,1.0,4.0,81,0.00,BKN,,0.00,WeatherDisplay:10.37,2013-05-16 13:19:00,
2013-05-16 09:30:00,64.3,56.2,29.80,SW,218,0.0,3.0,75,0.00,BKN,,0.00,WeatherDisplay:10.37,2013-05-16 13:30:00,
2013-05-16 09:39:00,65.1,55.9,29.79,SW,219,1.0,3.0,72,0.00,BKN,,0.00,WeatherDisplay:10.37,2013-05-16 13:39:00,
2013-05-16 09:49:00,66.1,55.6,29.79,SW,220,0.0,2.0,69,0.00,BKN,,0.00,WeatherDisplay:10.37,2013-05-16 13:49:00,
2013-05-16 10:00:00,67.4,54.8,29.79,NW,324,0.0,4.0,64,0.00,BKN,,0.00,WeatherDisplay:10.37,2013-05-16 14:00:00,
2013-05-16 10:09:00,68.5,54.1,29.78,NNW,333,1.0,5.0,60,0.00,BKN,,0.00,WeatherDisplay:10.37,2013-05-16 14:09:00,
2013-05-16 10:19:00,69.3,52.9,29.77,NNW,332,3.0,7.0,56,0.00,BKN,,0.00,WeatherDisplay:10.37,2013-05-16 14:19:00,
2013-05-16 10:30:00,69.5,52.1,29.77,NW,316,0.0,7.0,54,0.00,BKN,,0.00,WeatherDisplay:10.37,2013-05-16 14:30:00,
2013-05-16 10:39:00,70.3,51.8,29.77,North,350,3.0,9.0,52,0.00,BKN,,0.00,WeatherDisplay:10.37,2013-05-16 14:39:00,
2013-05-16 10:49:00,71.1,54.1,29.77,NNW,345,0.0,6.0,55,0.00,BKN,,0.00,WeatherDisplay:10.37,2013-05-16 14:49:00,
2013-05-16 11:00:00,72.1,51.9,29.77,WNW,303,2.0,6.0,49,0.00,BKN,,0.00,WeatherDisplay:10.37,2013-05-16 15:00:00,
2013-05-16 11:09:00,72.9,52.6,29.77,NW,322,2.0,6.0,49,0.00,BKN,,0.00,WeatherDisplay:10.37,2013-05-16 15:09:00,
2013-05-16 11:19:00,73.7,53.3,29.77,WSW,249,2.0,7.0,49,0.00,BKN,,0.00,WeatherDisplay:10.37,2013-05-16 15:19:00,
2013-05-16 11:29:00,74.2,52.1,29.77,NW,312,2.0,9.0,46,0.00,BKN,,0.00,WeatherDisplay:10.37,2013-05-16 15:29:00,
2013-05-16 11:39:00,74.4,52.3,29.77,West,281,1.0,7.0,46,0.00,BKN,,0.00,WeatherDisplay:10.37,2013-05-16 15:39:00,
2013-05-16 11:49:00,75.0,53.9,29.77,WNW,290,0.0,6.0,48,0.00,BKN,,0.00,WeatherDisplay:10.37,2013-05-16 15:49:00,
2013-05-16 12:00:00,75.3,51.9,29.76,WSW,258,1.0,9.0,44,0.00,BKN,,0.00,WeatherDisplay:10.37,2013-05-16 16:00:00,
2013-05-16 12:08:00,75.9,54.2,29.76,SSW,207,3.5,4.0,47,0.00,BKN,,0.00,WeatherDisplay:10.37,2013-05-16 16:08:00,
2013-05-16 12:20:00,76.4,52.2,29.76,North,353,1.0,9.0,43,0.00,BKN,,0.00,WeatherDisplay:10.37,2013-05-16 16:20:00,
2013-05-16 12:30:00,76.6,53.6,29.75,SW,216,0.0,6.0,45,0.00,BKN,,0.00,WeatherDisplay:10.37,2013-05-16 16:30:00,
2013-05-16 12:40:00,77.0,54.0,29.75,SW,221,1.0,7.0,45,0.00,BKN,,0.00,WeatherDisplay:10.37,2013-05-16 16:40:00,
2013-05-16 12:50:00,76.7,53.8,29.75,NW,315,0.0,6.0,45,0.00,BKN,,0.00,WeatherDisplay:10.37,2013-05-16 16:50:00,
2013-05-16 13:00:00,78.0,54.3,29.74,SW,215,5.0,9.0,44,0.00,BKN,,0.00,WeatherDisplay:10.37,2013-05-16 17:00:00,
2013-05-16 13:10:00,78.3,54.0,29.74,SSW,200,1.0,6.0,43,0.00,CLR,,0.00,WeatherDisplay:10.37,2013-05-16 17:10:00,
2013-05-16 13:20:00,78.7,53.0,29.74,WSW,257,2.0,9.0,41,0.00,CLR,,0.00,WeatherDisplay:10.37,2013-05-16 17:20:00,
2013-05-16 13:30:00,79.0,53.9,29.74,SW,216,3.0,12.0,42,0.00,CLR,,0.00,WeatherDisplay:10.37,2013-05-16 17:30:00,
2013-05-16 13:40:00,78.9,56.4,29.73,SSW,208,2.0,13.0,46,0.00,CLR,,0.00,WeatherDisplay:10.37,2013-05-16 17:40:00,
2013-05-16 13:50:00,79.3,55.5,29.73,SW,219,5.0,9.0,44,0.00,CLR,,0.00,WeatherDisplay:10.37,2013-05-16 17:50:00,
2013-05-16 14:00:00,79.8,56.6,29.73,SW,234,2.0,7.0,45,0.00,CLR,,0.00,WeatherDisplay:10.37,2013-05-16 18:00:00,
2013-05-16 14:10:00,79.7,56.5,29.73,WSW,238,2.0,9.0,45,0.00,FEW,,0.00,WeatherDisplay:10.37,2013-05-16 18:10:00,
2013-05-16 14:20:00,79.6,56.4,29.72,SW,214,2.0,9.0,45,0.00,FEW,,0.00,WeatherDisplay:10.37,2013-05-16 18:20:00,
2013-05-16 14:30:00,79.3,56.1,29.72,South,171,2.0,10.0,45,0.00,FEW,,0.00,WeatherDisplay:10.37,2013-05-16 18:30:00,
2013-05-16 14:40:00,79.8,56.6,29.71,South,183,1.0,8.0,45,0.00,FEW,,0.00,WeatherDisplay:10.37,2013-05-16 18:40:00,
2013-05-16 14:50:00,80.2,56.9,29.72,SSW,200,5.0,12.0,45,0.00,FEW,,0.00,WeatherDisplay:10.37,2013-05-16 18:50:00,
2013-05-16 15:00:00,80.1,58.7,29.72,SSW,211,5.0,13.0,48,0.00,FEW,,0.00,WeatherDisplay:10.37,2013-05-16 19:00:00,
2013-05-16 15:10:00,80.0,57.9,29.71,SSW,206,5.0,10.0,47,0.00,FEW,,0.00,WeatherDisplay:10.37,2013-05-16 19:10:00,
2013-05-16 15:20:00,79.3,57.9,29.71,SW,217,6.0,13.0,48,0.00,FEW,,0.00,WeatherDisplay:10.37,2013-05-16 19:20:00,
2013-05-16 15:30:00,79.5,58.6,29.71,SSW,203,5.0,14.0,49,0.00,FEW,,0.00,WeatherDisplay:10.37,2013-05-16 19:30:00,
2013-05-16 15:40:00,80.2,58.7,29.70,SW,229,6.0,12.0,48,0.00,FEW,,0.00,WeatherDisplay:10.37,2013-05-16 19:40:00,
2013-05-16 15:50:00,79.9,57.9,29.70,South,171,3.0,12.0,47,0.00,FEW,,0.00,WeatherDisplay:10.37,2013-05-16 19:50:00,
2013-05-16 16:00:00,79.0,57.6,29.70,SSW,210,3.0,9.0,48,0.00,FEW,,0.00,WeatherDisplay:10.37,2013-05-16 20:00:00,
2013-05-16 16:10:00,80.0,59.2,29.70,SW,227,5.0,8.0,49,0.00,SCT,,0.00,WeatherDisplay:10.37,2013-05-16 20:10:00,
2013-05-16 16:20:00,80.8,59.3,29.70,SSW,209,5.0,10.0,48,0.00,SCT,,0.00,WeatherDisplay:10.37,2013-05-16 20:20:00,
2013-05-16 16:30:00,80.8,58.7,29.70,South,176,2.0,9.0,47,0.00,SCT,,0.00,WeatherDisplay:10.37,2013-05-16 20:30:00,
2013-05-16 16:40:00,80.5,59.6,29.69,South,189,3.0,12.0,49,0.00,SCT,,0.00,WeatherDisplay:10.37,2013-05-16 20:40:00,
2013-05-16 16:50:00,80.7,59.8,29.70,SW,231,2.0,10.0,49,0.00,SCT,,0.00,WeatherDisplay:10.37,2013-05-16 20:50:00,
2013-05-16 17:00:00,80.9,59.4,29.70,WSW,258,0.0,5.0,48,0.00,SCT,,0.00,WeatherDisplay:10.37,2013-05-16 21:00:00,
2013-05-16 17:10:00,80.9,60.5,29.70,WSW,246,1.0,5.0,50,0.00,FEW,,0.00,WeatherDisplay:10.37,2013-05-16 21:10:00,
2013-05-16 17:20:00,80.8,60.4,29.69,SW,222,3.0,7.0,50,0.00,FEW,,0.00,WeatherDisplay:10.37,2013-05-16 21:20:00,
2013-05-16 17:30:00,80.2,59.9,29.69,SW,214,0.0,5.0,50,0.00,FEW,,0.00,WeatherDisplay:10.37,2013-05-16 21:30:00,
2013-05-16 17:40:00,80.0,59.7,29.69,West,260,1.0,7.0,50,0.00,FEW,,0.00,WeatherDisplay:10.37,2013-05-16 21:40:00,
2013-05-16 17:50:00,79.7,59.4,29.69,SW,220,2.0,7.0,50,0.00,FEW,,0.00,WeatherDisplay:10.37,2013-05-16 21:50:00,
2013-05-16 18:00:00,79.3,59.6,29.69,WSW,247,1.0,7.0,51,0.00,FEW,,0.00,WeatherDisplay:10.37,2013-05-16 22:00:00,
2013-05-16 18:10:00,79.0,59.3,29.69,SSW,210,0.0,4.0,51,0.00,SCT,,0.00,WeatherDisplay:10.37,2013-05-16 22:10:00,
2013-05-16 18:20:00,78.5,58.3,29.69,SW,220,1.0,6.0,50,0.00,SCT,,0.00,WeatherDisplay:10.37,2013-05-16 22:20:00,
2013-05-16 18:30:00,78.3,59.7,29.70,SW,224,1.0,7.0,53,0.00,SCT,,0.00,WeatherDisplay:10.37,2013-05-16 22:30:00,
2013-05-16 18:40:00,77.9,59.4,29.70,South,190,2.0,6.0,53,0.00,SCT,,0.00,WeatherDisplay:10.37,2013-05-16 22:40:00,
2013-05-16 18:50:00,77.5,60.6,29.70,South,189,0.0,7.0,56,0.00,SCT,,0.00,WeatherDisplay:10.37,2013-05-16 22:50:00,
2013-05-16 19:00:00,76.6,60.2,29.71,SE,141,0.0,4.0,57,0.00,SCT,,0.00,WeatherDisplay:10.37,2013-05-16 23:00:00,
2013-05-16 19:10:00,75.6,59.8,29.72,South,187,2.0,5.0,58,0.00,FEW,,0.00,WeatherDisplay:10.37,2013-05-16 23:10:00,
2013-05-16 19:20:00,74.8,60.4,29.72,WSW,237,0.0,3.0,61,0.00,FEW,,0.00,WeatherDisplay:10.37,2013-05-16 23:20:00,
2013-05-16 19:29:00,73.6,60.7,29.73,SW,234,0.0,4.0,64,0.00,FEW,,0.00,WeatherDisplay:10.37,2013-05-16 23:29:00,
2013-05-16 19:40:00,72.6,59.7,29.73,SE,146,2.0,6.0,64,0.00,FEW,,0.00,WeatherDisplay:10.37,2013-05-16 23:40:00,
2013-05-16 19:50:00,71.8,59.8,29.73,SSE,161,0.0,4.0,66,0.00,FEW,,0.00,WeatherDisplay:10.37,2013-05-16 23:50:00,
2013-05-16 20:00:00,70.7,59.2,29.74,SSE,165,0.0,4.0,67,0.00,FEW,,0.00,WeatherDisplay:10.37,2013-05-17 00:00:00,
2013-05-16 20:10:00,69.4,58.8,29.74,SSE,165,0.0,2.0,69,0.00,FEW,,0.00,WeatherDisplay:10.37,2013-05-17 00:10:00,
2013-05-16 20:20:00,67.9,58.2,29.74,SSE,165,0.0,0.0,71,0.00,FEW,,0.00,WeatherDisplay:10.37,2013-05-17 00:20:00,
2013-05-16 20:30:00,66.6,57.7,29.75,SSE,165,0.0,0.0,73,0.00,FEW,,0.00,WeatherDisplay:10.37,2013-05-17 00:30:00,
2013-05-16 20:40:00,65.3,57.1,29.75,SSE,165,0.0,0.0,75,0.00,FEW,,0.00,WeatherDisplay:10.37,2013-05-17 00:40:00,
2013-05-16 20:50:00,64.2,56.5,29.75,SSE,165,0.0,0.0,76,0.00,FEW,,0.00,WeatherDisplay:10.37,2013-05-17 00:50:00,
2013-05-16 21:00:00,63.4,56.4,29.76,SSE,165,0.0,0.0,78,0.00,FEW,,0.00,WeatherDisplay:10.37,2013-05-17 01:00:00,
2013-05-16 21:10:00,62.6,56.0,29.76,SSE,165,0.0,0.0,79,0.00,FEW,,0.00,WeatherDisplay:10.37,2013-05-17 01:10:00,
2013-05-16 21:20:00,61.9,55.6,29.77,SSE,165,0.0,0.0,80,0.00,FEW,,0.00,WeatherDisplay:10.37,2013-05-17 01:20:00,
2013-05-16 21:30:00,61.1,55.5,29.77,SSE,165,0.0,0.0,82,0.00,FEW,,0.00,WeatherDisplay:10.37,2013-05-17 01:30:00,
2013-05-16 21:40:00,60.4,54.8,29.77,SSE,165,0.0,0.0,82,0.00,FEW,,0.00,WeatherDisplay:10.37,2013-05-17 01:40:00,
2013-05-16 21:50:00,59.7,54.8,29.78,SSE,165,0.0,0.0,84,0.00,FEW,,0.00,WeatherDisplay:10.37,2013-05-17 01:50:00,
2013-05-16 22:00:00,59.0,54.2,29.78,SSE,165,0.0,0.0,84,0.00,FEW,,0.00,WeatherDisplay:10.37,2013-05-17 02:00:00,
2013-05-16 22:10:00,58.4,54.3,29.78,SSE,165,0.0,0.0,86,0.00,CLR,,0.00,WeatherDisplay:10.37,2013-05-17 02:10:00,
2013-05-16 22:20:00,57.9,54.1,29.79,SSE,165,0.0,0.0,87,0.00,CLR,,0.00,WeatherDisplay:10.37,2013-05-17 02:20:00,
2013-05-16 22:30:00,57.5,54.0,29.79,SSE,165,0.0,0.0,88,0.00,CLR,,0.00,WeatherDisplay:10.37,2013-05-17 02:30:00,
2013-05-16 22:40:00,57.1,53.9,29.79,SSE,165,0.0,0.0,89,0.00,CLR,,0.00,WeatherDisplay:10.37,2013-05-17 02:40:00,
2013-05-16 22:50:00,56.7,53.5,29.80,SSE,165,0.0,0.0,89,0.00,CLR,,0.00,WeatherDisplay:10.37,2013-05-17 02:50:00,
2013-05-16 23:00:00,56.2,53.3,29.80,SSE,165,0.0,0.0,90,0.00,CLR,,0.00,WeatherDisplay:10.37,2013-05-17 03:00:00,
2013-05-16 23:10:00,55.7,52.8,29.80,SSE,165,0.0,0.0,90,0.00,CLR,,0.00,WeatherDisplay:10.37,2013-05-17 03:10:00,
2013-05-16 23:20:00,55.3,52.7,29.80,SSE,165,0.0,0.0,91,0.00,CLR,,0.00,WeatherDisplay:10.37,2013-05-17 03:20:00,
2013-05-16 23:30:00,55.2,52.9,29.80,SSE,165,0.0,0.0,92,0.00,CLR,,0.00,WeatherDisplay:10.37,2013-05-17 03:30:00,
2013-05-16 23:40:00,55.1,53.1,29.80,SSE,165,0.0,0.0,93,0.00,CLR,,0.00,WeatherDisplay:10.37,2013-05-17 03:40:00,
2013-05-16 23:50:00,55.0,53.0,29.81,SSE,165,0.0,0.0,93,0.00,CLR,,0.00,WeatherDisplay:10.37,2013-05-17 03:50:00,